sensor_id;sensor_type;location;lat;lon;timestamp;temperature;humidity
43581;DHT22;29175;51.030;4.606;2023-09-19T00:01:42;15.60;99.90
43581;DHT22;29175;51.030;4.606;2023-09-19T00:04:11;15.60;99.90
43581;DHT22;29175;51.030;4.606;2023-09-19T00:06:38;15.60;99.90
43581;DHT22;29175;51.030;4.606;2023-09-19T00:09:04;15.60;99.90
43581;DHT22;29175;51.030;4.606;2023-09-19T00:11:30;15.60;99.90
43581;DHT22;29175;51.030;4.606;2023-09-19T00:13:57;15.50;99.90
43581;DHT22;29175;51.030;4.606;2023-09-19T00:16:25;15.50;99.90
43581;DHT22;29175;51.030;4.606;2023-09-19T00:18:51;15.60;99.90
43581;DHT22;29175;51.030;4.606;2023-09-19T00:21:18;15.60;99.90
43581;DHT22;29175;51.030;4.606;2023-09-19T00:23:45;15.50;99.90
43581;DHT22;29175;51.030;4.606;2023-09-19T00:26:10;15.50;99.90
43581;DHT22;29175;51.030;4.606;2023-09-19T00:28:36;15.50;99.90
43581;DHT22;29175;51.030;4.606;2023-09-19T00:31:02;15.50;99.90
43581;DHT22;29175;51.030;4.606;2023-09-19T00:33:28;15.50;99.90
43581;DHT22;29175;51.030;4.606;2023-09-19T00:35:56;15.50;99.90
43581;DHT22;29175;51.030;4.606;2023-09-19T00:38:23;15.50;99.90
43581;DHT22;29175;51.030;4.606;2023-09-19T00:40:53;15.60;99.90
43581;DHT22;29175;51.030;4.606;2023-09-19T00:43:20;15.50;99.90
43581;DHT22;29175;51.030;4.606;2023-09-19T00:45:48;15.60;99.90
43581;DHT22;29175;51.030;4.606;2023-09-19T00:48:15;15.50;99.90
43581;DHT22;29175;51.030;4.606;2023-09-19T00:50:43;15.50;99.90
43581;DHT22;29175;51.030;4.606;2023-09-19T00:53:13;15.50;99.90
43581;DHT22;29175;51.030;4.606;2023-09-19T00:55:40;15.60;99.90
43581;DHT22;29175;51.030;4.606;2023-09-19T00:58:08;15.60;99.90
43581;DHT22;29175;51.030;4.606;2023-09-19T01:00:36;15.40;99.90
43581;DHT22;29175;51.030;4.606;2023-09-19T01:03:02;15.40;99.90
43581;DHT22;29175;51.030;4.606;2023-09-19T01:05:28;15.40;99.90
43581;DHT22;29175;51.030;4.606;2023-09-19T01:07:56;15.40;99.90
43581;DHT22;29175;51.030;4.606;2023-09-19T01:10:22;15.40;99.90
43581;DHT22;29175;51.030;4.606;2023-09-19T01:32:03;15.10;99.90
43581;DHT22;29175;51.030;4.606;2023-09-19T01:34:49;15.20;99.90
43581;DHT22;29175;51.030;4.606;2023-09-19T01:37:19;15.20;99.90
43581;DHT22;29175;51.030;4.606;2023-09-19T01:39:54;15.10;99.90
43581;DHT22;29175;51.030;4.606;2023-09-19T01:45:13;15.10;99.90
43581;DHT22;29175;51.030;4.606;2023-09-19T01:47:55;15.10;99.90
43581;DHT22;29175;51.030;4.606;2023-09-19T01:50:44;14.90;99.90
43581;DHT22;29175;51.030;4.606;2023-09-19T01:53:23;14.90;99.90
43581;DHT22;29175;51.030;4.606;2023-09-19T01:55:50;14.90;99.90
43581;DHT22;29175;51.030;4.606;2023-09-19T01:58:40;14.90;99.90
43581;DHT22;29175;51.030;4.606;2023-09-19T02:01:12;15.00;99.90
43581;DHT22;29175;51.030;4.606;2023-09-19T02:03:41;15.00;99.90
43581;DHT22;29175;51.030;4.606;2023-09-19T02:06:07;15.00;99.90
43581;DHT22;29175;51.030;4.606;2023-09-19T02:08:37;15.00;99.90
43581;DHT22;29175;51.030;4.606;2023-09-19T02:11:02;14.90;99.90
43581;DHT22;29175;51.030;4.606;2023-09-19T02:13:28;15.00;99.90
43581;DHT22;29175;51.030;4.606;2023-09-19T02:15:56;14.90;99.90
43581;DHT22;29175;51.030;4.606;2023-09-19T02:18:21;15.00;99.90
43581;DHT22;29175;51.030;4.606;2023-09-19T02:20:48;14.90;99.90
43581;DHT22;29175;51.030;4.606;2023-09-19T02:23:16;15.00;99.90
43581;DHT22;29175;51.030;4.606;2023-09-19T02:25:42;15.10;99.90
43581;DHT22;29175;51.030;4.606;2023-09-19T02:28:09;15.20;99.90
43581;DHT22;29175;51.030;4.606;2023-09-19T02:30:35;15.10;99.90
43581;DHT22;29175;51.030;4.606;2023-09-19T02:33:01;15.20;99.90
43581;DHT22;29175;51.030;4.606;2023-09-19T02:35:28;15.10;99.90
43581;DHT22;29175;51.030;4.606;2023-09-19T02:37:56;15.20;99.90
43581;DHT22;29175;51.030;4.606;2023-09-19T02:40:23;15.20;99.90
43581;DHT22;29175;51.030;4.606;2023-09-19T02:42:55;15.20;99.90
43581;DHT22;29175;51.030;4.606;2023-09-19T02:45:22;15.20;99.90
43581;DHT22;29175;51.030;4.606;2023-09-19T02:47:49;15.30;99.90
43581;DHT22;29175;51.030;4.606;2023-09-19T02:50:15;15.40;99.90
43581;DHT22;29175;51.030;4.606;2023-09-19T02:52:44;15.40;99.90
43581;DHT22;29175;51.030;4.606;2023-09-19T02:55:13;15.60;99.90
43581;DHT22;29175;51.030;4.606;2023-09-19T02:57:49;15.40;99.90
43581;DHT22;29175;51.030;4.606;2023-09-19T03:00:16;15.40;99.90
43581;DHT22;29175;51.030;4.606;2023-09-19T03:02:43;15.40;99.90
43581;DHT22;29175;51.030;4.606;2023-09-19T03:05:11;15.40;99.90
43581;DHT22;29175;51.030;4.606;2023-09-19T03:07:37;15.40;99.90
43581;DHT22;29175;51.030;4.606;2023-09-19T03:10:07;15.40;99.90
43581;DHT22;29175;51.030;4.606;2023-09-19T03:12:34;15.30;99.90
43581;DHT22;29175;51.030;4.606;2023-09-19T03:15:01;15.30;99.90
43581;DHT22;29175;51.030;4.606;2023-09-19T03:17:27;15.20;99.90
43581;DHT22;29175;51.030;4.606;2023-09-19T03:19:53;15.10;99.90
43581;DHT22;29175;51.030;4.606;2023-09-19T03:22:19;15.10;99.90
43581;DHT22;29175;51.030;4.606;2023-09-19T03:24:46;15.00;99.90
43581;DHT22;29175;51.030;4.606;2023-09-19T03:27:12;15.20;99.90
43581;DHT22;29175;51.030;4.606;2023-09-19T03:29:42;15.20;99.90
43581;DHT22;29175;51.030;4.606;2023-09-19T03:32:08;15.30;99.90
43581;DHT22;29175;51.030;4.606;2023-09-19T03:34:37;15.20;99.90
43581;DHT22;29175;51.030;4.606;2023-09-19T03:37:09;15.20;99.90
43581;DHT22;29175;51.030;4.606;2023-09-19T03:39:35;15.30;99.90
43581;DHT22;29175;51.030;4.606;2023-09-19T03:42:02;15.30;99.90
43581;DHT22;29175;51.030;4.606;2023-09-19T03:44:32;15.40;99.90
43581;DHT22;29175;51.030;4.606;2023-09-19T03:46:58;15.30;99.90
43581;DHT22;29175;51.030;4.606;2023-09-19T03:49:24;15.40;99.90
43581;DHT22;29175;51.030;4.606;2023-09-19T03:51:50;15.40;99.90
43581;DHT22;29175;51.030;4.606;2023-09-19T03:54:16;15.40;99.90
43581;DHT22;29175;51.030;4.606;2023-09-19T03:56:43;15.40;99.90
43581;DHT22;29175;51.030;4.606;2023-09-19T03:59:09;15.40;99.90
43581;DHT22;29175;51.030;4.606;2023-09-19T04:01:35;15.30;99.90
43581;DHT22;29175;51.030;4.606;2023-09-19T04:04:00;15.30;99.90
43581;DHT22;29175;51.030;4.606;2023-09-19T04:06:34;15.40;99.90
43581;DHT22;29175;51.030;4.606;2023-09-19T04:09:01;15.40;99.90
43581;DHT22;29175;51.030;4.606;2023-09-19T04:11:27;15.50;99.90
43581;DHT22;29175;51.030;4.606;2023-09-19T04:13:53;15.50;99.90
43581;DHT22;29175;51.030;4.606;2023-09-19T04:16:19;15.50;99.90
43581;DHT22;29175;51.030;4.606;2023-09-19T04:18:45;15.70;99.90
43581;DHT22;29175;51.030;4.606;2023-09-19T04:21:11;15.70;99.90
43581;DHT22;29175;51.030;4.606;2023-09-19T04:23:36;15.80;99.90
43581;DHT22;29175;51.030;4.606;2023-09-19T04:26:02;15.80;99.90
43581;DHT22;29175;51.030;4.606;2023-09-19T04:28:33;15.70;99.90
43581;DHT22;29175;51.030;4.606;2023-09-19T04:31:00;15.40;99.90
43581;DHT22;29175;51.030;4.606;2023-09-19T04:33:26;15.30;99.90
43581;DHT22;29175;51.030;4.606;2023-09-19T04:35:55;15.20;99.90
43581;DHT22;29175;51.030;4.606;2023-09-19T04:38:21;15.20;99.90
43581;DHT22;29175;51.030;4.606;2023-09-19T04:40:47;15.00;99.90
43581;DHT22;29175;51.030;4.606;2023-09-19T04:43:13;15.00;99.90
43581;DHT22;29175;51.030;4.606;2023-09-19T04:45:41;14.90;99.90
43581;DHT22;29175;51.030;4.606;2023-09-19T04:48:07;14.90;99.90
43581;DHT22;29175;51.030;4.606;2023-09-19T04:50:34;14.90;99.90
43581;DHT22;29175;51.030;4.606;2023-09-19T04:53:00;15.00;99.90
43581;DHT22;29175;51.030;4.606;2023-09-19T04:55:27;15.00;99.90
43581;DHT22;29175;51.030;4.606;2023-09-19T04:57:54;14.80;99.90
43581;DHT22;29175;51.030;4.606;2023-09-19T05:00:21;14.80;99.90
43581;DHT22;29175;51.030;4.606;2023-09-19T05:02:57;14.70;99.90
43581;DHT22;29175;51.030;4.606;2023-09-19T05:05:23;14.80;99.90
43581;DHT22;29175;51.030;4.606;2023-09-19T05:07:52;14.80;99.90
43581;DHT22;29175;51.030;4.606;2023-09-19T05:10:21;14.80;99.90
43581;DHT22;29175;51.030;4.606;2023-09-19T05:12:47;14.80;99.90
43581;DHT22;29175;51.030;4.606;2023-09-19T05:15:14;14.60;99.90
43581;DHT22;29175;51.030;4.606;2023-09-19T05:17:40;14.60;99.90
43581;DHT22;29175;51.030;4.606;2023-09-19T05:20:07;14.60;99.90
43581;DHT22;29175;51.030;4.606;2023-09-19T05:22:42;14.60;99.90
43581;DHT22;29175;51.030;4.606;2023-09-19T05:25:09;14.60;99.90
43581;DHT22;29175;51.030;4.606;2023-09-19T05:27:35;14.60;99.90
43581;DHT22;29175;51.030;4.606;2023-09-19T05:30:01;14.60;99.90
43581;DHT22;29175;51.030;4.606;2023-09-19T05:32:27;14.60;99.90
43581;DHT22;29175;51.030;4.606;2023-09-19T05:34:53;14.60;99.90
43581;DHT22;29175;51.030;4.606;2023-09-19T05:37:19;14.60;99.90
43581;DHT22;29175;51.030;4.606;2023-09-19T05:39:47;14.70;99.90
43581;DHT22;29175;51.030;4.606;2023-09-19T05:42:12;14.70;99.90
43581;DHT22;29175;51.030;4.606;2023-09-19T05:44:39;14.70;99.90
43581;DHT22;29175;51.030;4.606;2023-09-19T05:47:04;14.70;99.90
43581;DHT22;29175;51.030;4.606;2023-09-19T05:49:30;14.70;99.90
43581;DHT22;29175;51.030;4.606;2023-09-19T05:51:56;14.70;99.90
43581;DHT22;29175;51.030;4.606;2023-09-19T05:54:24;14.80;99.90
43581;DHT22;29175;51.030;4.606;2023-09-19T05:56:50;14.80;99.90
43581;DHT22;29175;51.030;4.606;2023-09-19T05:59:19;14.90;99.90
43581;DHT22;29175;51.030;4.606;2023-09-19T06:01:45;15.00;99.90
43581;DHT22;29175;51.030;4.606;2023-09-19T06:04:12;14.90;99.90
43581;DHT22;29175;51.030;4.606;2023-09-19T06:06:38;15.00;99.90
43581;DHT22;29175;51.030;4.606;2023-09-19T06:09:06;15.00;99.90
43581;DHT22;29175;51.030;4.606;2023-09-19T06:11:34;15.00;99.90
43581;DHT22;29175;51.030;4.606;2023-09-19T06:14:01;15.10;99.90
43581;DHT22;29175;51.030;4.606;2023-09-19T06:16:28;15.10;99.90
43581;DHT22;29175;51.030;4.606;2023-09-19T06:18:54;15.10;99.90
43581;DHT22;29175;51.030;4.606;2023-09-19T06:21:22;15.20;99.90
43581;DHT22;29175;51.030;4.606;2023-09-19T06:23:48;15.20;99.90
43581;DHT22;29175;51.030;4.606;2023-09-19T06:26:14;15.20;99.90
43581;DHT22;29175;51.030;4.606;2023-09-19T06:28:40;15.30;99.90
43581;DHT22;29175;51.030;4.606;2023-09-19T06:31:06;15.50;99.90
43581;DHT22;29175;51.030;4.606;2023-09-19T06:33:36;15.60;99.90
43581;DHT22;29175;51.030;4.606;2023-09-19T06:36:05;15.70;99.90
43581;DHT22;29175;51.030;4.606;2023-09-19T06:38:31;15.90;99.90
43581;DHT22;29175;51.030;4.606;2023-09-19T06:41:00;16.10;99.90
43581;DHT22;29175;51.030;4.606;2023-09-19T06:43:27;16.20;99.90
43581;DHT22;29175;51.030;4.606;2023-09-19T06:45:54;16.40;99.90
43581;DHT22;29175;51.030;4.606;2023-09-19T06:48:20;16.60;99.90
43581;DHT22;29175;51.030;4.606;2023-09-19T06:50:46;16.80;99.90
43581;DHT22;29175;51.030;4.606;2023-09-19T06:53:13;16.90;99.90
43581;DHT22;29175;51.030;4.606;2023-09-19T06:55:39;16.90;99.90
43581;DHT22;29175;51.030;4.606;2023-09-19T06:58:05;16.90;99.90
43581;DHT22;29175;51.030;4.606;2023-09-19T07:00:31;16.90;99.90
43581;DHT22;29175;51.030;4.606;2023-09-19T07:03:03;17.00;99.90
43581;DHT22;29175;51.030;4.606;2023-09-19T07:05:34;17.00;99.90
43581;DHT22;29175;51.030;4.606;2023-09-19T07:08:03;17.00;99.90
43581;DHT22;29175;51.030;4.606;2023-09-19T07:10:29;17.10;99.90
43581;DHT22;29175;51.030;4.606;2023-09-19T07:12:59;17.30;99.90
43581;DHT22;29175;51.030;4.606;2023-09-19T07:15:26;17.30;99.90
43581;DHT22;29175;51.030;4.606;2023-09-19T07:17:52;17.30;99.90
43581;DHT22;29175;51.030;4.606;2023-09-19T07:20:22;17.60;99.90
43581;DHT22;29175;51.030;4.606;2023-09-19T07:22:50;17.90;99.90
43581;DHT22;29175;51.030;4.606;2023-09-19T07:25:17;18.10;99.90
43581;DHT22;29175;51.030;4.606;2023-09-19T07:27:43;18.10;99.90
43581;DHT22;29175;51.030;4.606;2023-09-19T07:30:10;18.40;99.90
43581;DHT22;29175;51.030;4.606;2023-09-19T07:32:37;18.70;99.90
43581;DHT22;29175;51.030;4.606;2023-09-19T07:35:04;18.90;99.90
43581;DHT22;29175;51.030;4.606;2023-09-19T07:37:31;19.20;99.90
43581;DHT22;29175;51.030;4.606;2023-09-19T07:39:59;19.60;99.90
43581;DHT22;29175;51.030;4.606;2023-09-19T07:42:26;19.70;99.90
43581;DHT22;29175;51.030;4.606;2023-09-19T07:44:52;19.60;99.90
43581;DHT22;29175;51.030;4.606;2023-09-19T07:47:20;19.80;99.90
43581;DHT22;29175;51.030;4.606;2023-09-19T07:49:49;19.80;99.90
43581;DHT22;29175;51.030;4.606;2023-09-19T07:52:15;20.10;99.90
43581;DHT22;29175;51.030;4.606;2023-09-19T07:54:41;20.50;99.90
43581;DHT22;29175;51.030;4.606;2023-09-19T07:57:10;20.30;99.90
43581;DHT22;29175;51.030;4.606;2023-09-19T07:59:36;20.50;99.90
43581;DHT22;29175;51.030;4.606;2023-09-19T08:02:04;20.60;99.90
43581;DHT22;29175;51.030;4.606;2023-09-19T08:04:30;20.50;99.90
43581;DHT22;29175;51.030;4.606;2023-09-19T08:06:59;20.70;99.90
43581;DHT22;29175;51.030;4.606;2023-09-19T08:09:29;20.90;99.90
43581;DHT22;29175;51.030;4.606;2023-09-19T08:11:58;21.00;99.90
43581;DHT22;29175;51.030;4.606;2023-09-19T08:14:29;21.00;99.90
43581;DHT22;29175;51.030;4.606;2023-09-19T08:16:58;20.90;99.90
43581;DHT22;29175;51.030;4.606;2023-09-19T08:19:24;21.20;99.90
43581;DHT22;29175;51.030;4.606;2023-09-19T08:21:55;20.90;99.90
43581;DHT22;29175;51.030;4.606;2023-09-19T08:24:24;21.00;99.90
43581;DHT22;29175;51.030;4.606;2023-09-19T08:26:52;20.90;99.90
43581;DHT22;29175;51.030;4.606;2023-09-19T08:29:20;21.10;99.90
43581;DHT22;29175;51.030;4.606;2023-09-19T08:31:46;21.30;99.90
43581;DHT22;29175;51.030;4.606;2023-09-19T08:34:15;21.70;99.90
43581;DHT22;29175;51.030;4.606;2023-09-19T08:36:41;22.10;99.90
43581;DHT22;29175;51.030;4.606;2023-09-19T08:39:09;22.10;99.90
43581;DHT22;29175;51.030;4.606;2023-09-19T08:41:34;22.00;99.90
43581;DHT22;29175;51.030;4.606;2023-09-19T08:44:00;22.20;99.90
43581;DHT22;29175;51.030;4.606;2023-09-19T08:46:30;22.40;99.90
43581;DHT22;29175;51.030;4.606;2023-09-19T08:49:04;23.00;99.90
43581;DHT22;29175;51.030;4.606;2023-09-19T08:51:43;23.10;99.90
43581;DHT22;29175;51.030;4.606;2023-09-19T08:56:46;24.00;99.90
43581;DHT22;29175;51.030;4.606;2023-09-19T08:59:13;24.10;99.90
43581;DHT22;29175;51.030;4.606;2023-09-19T09:01:40;23.80;99.90
43581;DHT22;29175;51.030;4.606;2023-09-19T09:04:08;23.90;99.90
43581;DHT22;29175;51.030;4.606;2023-09-19T09:06:35;23.60;99.90
43581;DHT22;29175;51.030;4.606;2023-09-19T09:09:02;24.00;99.90
43581;DHT22;29175;51.030;4.606;2023-09-19T09:11:29;24.10;99.90
43581;DHT22;29175;51.030;4.606;2023-09-19T09:13:58;24.40;99.90
43581;DHT22;29175;51.030;4.606;2023-09-19T09:16:24;25.10;99.90
43581;DHT22;29175;51.030;4.606;2023-09-19T09:18:51;25.20;99.90
43581;DHT22;29175;51.030;4.606;2023-09-19T09:21:18;24.90;99.90
43581;DHT22;29175;51.030;4.606;2023-09-19T09:23:44;24.60;99.90
43581;DHT22;29175;51.030;4.606;2023-09-19T09:26:10;24.20;99.90
43581;DHT22;29175;51.030;4.606;2023-09-19T09:28:36;23.60;99.90
43581;DHT22;29175;51.030;4.606;2023-09-19T09:31:22;23.10;99.90
43581;DHT22;29175;51.030;4.606;2023-09-19T09:33:55;22.60;99.90
43581;DHT22;29175;51.030;4.606;2023-09-19T09:36:38;22.50;99.90
43581;DHT22;29175;51.030;4.606;2023-09-19T09:39:05;22.60;99.90
43581;DHT22;29175;51.030;4.606;2023-09-19T09:41:44;22.60;99.90
43581;DHT22;29175;51.030;4.606;2023-09-19T09:44:15;22.60;99.90
43581;DHT22;29175;51.030;4.606;2023-09-19T09:46:44;22.40;99.90
43581;DHT22;29175;51.030;4.606;2023-09-19T09:49:27;22.10;99.90
43581;DHT22;29175;51.030;4.606;2023-09-19T09:55:04;21.90;99.90
43581;DHT22;29175;51.030;4.606;2023-09-19T09:57:34;21.80;99.90
43581;DHT22;29175;51.030;4.606;2023-09-19T10:00:01;21.50;99.90
43581;DHT22;29175;51.030;4.606;2023-09-19T10:02:39;21.10;99.90
43581;DHT22;29175;51.030;4.606;2023-09-19T10:05:18;21.00;99.90
43581;DHT22;29175;51.030;4.606;2023-09-19T10:07:54;21.10;99.90
43581;DHT22;29175;51.030;4.606;2023-09-19T10:10:39;21.00;99.90
43581;DHT22;29175;51.030;4.606;2023-09-19T10:13:09;20.90;99.90
43581;DHT22;29175;51.030;4.606;2023-09-19T10:15:39;21.30;99.90
43581;DHT22;29175;51.030;4.606;2023-09-19T10:18:14;21.50;99.90
43581;DHT22;29175;51.030;4.606;2023-09-19T10:20:47;21.60;99.90
43581;DHT22;29175;51.030;4.606;2023-09-19T10:23:15;21.50;99.90
43581;DHT22;29175;51.030;4.606;2023-09-19T10:25:48;21.40;99.90
43581;DHT22;29175;51.030;4.606;2023-09-19T10:28:16;21.60;99.90
43581;DHT22;29175;51.030;4.606;2023-09-19T10:30:48;21.70;99.90
43581;DHT22;29175;51.030;4.606;2023-09-19T10:33:17;21.70;99.90
43581;DHT22;29175;51.030;4.606;2023-09-19T10:35:45;21.40;99.90
43581;DHT22;29175;51.030;4.606;2023-09-19T10:38:19;21.30;99.90
43581;DHT22;29175;51.030;4.606;2023-09-19T10:40:49;21.10;99.90
43581;DHT22;29175;51.030;4.606;2023-09-19T10:43:16;21.30;99.90
43581;DHT22;29175;51.030;4.606;2023-09-19T10:45:48;21.00;99.90
43581;DHT22;29175;51.030;4.606;2023-09-19T10:48:19;21.20;99.90
43581;DHT22;29175;51.030;4.606;2023-09-19T10:51:15;21.50;99.90
43581;DHT22;29175;51.030;4.606;2023-09-19T10:56:33;21.20;99.90
43581;DHT22;29175;51.030;4.606;2023-09-19T10:59:10;21.10;99.90
43581;DHT22;29175;51.030;4.606;2023-09-19T11:10:02;21.00;99.90
43581;DHT22;29175;51.030;4.606;2023-09-19T11:26:48;21.50;99.90
43581;DHT22;29175;51.030;4.606;2023-09-19T11:29:29;21.40;99.90
43581;DHT22;29175;51.030;4.606;2023-09-19T11:31:56;21.30;99.90
43581;DHT22;29175;51.030;4.606;2023-09-19T11:40:09;21.20;99.90
43581;DHT22;29175;51.030;4.606;2023-09-19T11:42:48;21.20;99.90
43581;DHT22;29175;51.030;4.606;2023-09-19T11:48:23;21.50;99.90
43581;DHT22;29175;51.030;4.606;2023-09-19T11:50:53;21.60;99.90
43581;DHT22;29175;51.030;4.606;2023-09-19T11:53:19;21.60;99.90
43581;DHT22;29175;51.030;4.606;2023-09-19T11:55:45;21.70;99.90
43581;DHT22;29175;51.030;4.606;2023-09-19T11:58:20;21.70;99.90
43581;DHT22;29175;51.030;4.606;2023-09-19T12:00:54;21.50;99.90
43581;DHT22;29175;51.030;4.606;2023-09-19T12:03:29;21.70;99.90
43581;DHT22;29175;51.030;4.606;2023-09-19T12:05:56;21.80;99.90
43581;DHT22;29175;51.030;4.606;2023-09-19T12:08:23;21.60;99.90
43581;DHT22;29175;51.030;4.606;2023-09-19T12:10:50;21.40;99.90
43581;DHT22;29175;51.030;4.606;2023-09-19T12:13:19;21.30;99.90
43581;DHT22;29175;51.030;4.606;2023-09-19T12:15:46;21.30;99.90
43581;DHT22;29175;51.030;4.606;2023-09-19T12:18:29;21.20;99.90
43581;DHT22;29175;51.030;4.606;2023-09-19T12:20:55;21.10;99.90
43581;DHT22;29175;51.030;4.606;2023-09-19T12:23:21;21.10;99.90
43581;DHT22;29175;51.030;4.606;2023-09-19T12:25:47;21.30;99.90
43581;DHT22;29175;51.030;4.606;2023-09-19T12:28:18;21.50;99.90
43581;DHT22;29175;51.030;4.606;2023-09-19T12:30:43;21.50;99.90
43581;DHT22;29175;51.030;4.606;2023-09-19T12:33:19;21.20;99.90
43581;DHT22;29175;51.030;4.606;2023-09-19T12:35:46;21.00;99.90
43581;DHT22;29175;51.030;4.606;2023-09-19T12:38:25;20.90;99.90
43581;DHT22;29175;51.030;4.606;2023-09-19T12:40:58;21.00;99.90
43581;DHT22;29175;51.030;4.606;2023-09-19T12:43:31;21.20;99.90
43581;DHT22;29175;51.030;4.606;2023-09-19T12:45:59;21.30;99.90
43581;DHT22;29175;51.030;4.606;2023-09-19T12:48:26;21.50;99.90
43581;DHT22;29175;51.030;4.606;2023-09-19T12:51:10;21.50;99.90
43581;DHT22;29175;51.030;4.606;2023-09-19T12:53:45;21.50;99.90
43581;DHT22;29175;51.030;4.606;2023-09-19T12:56:15;21.30;99.90
43581;DHT22;29175;51.030;4.606;2023-09-19T12:58:58;21.20;99.90
43581;DHT22;29175;51.030;4.606;2023-09-19T13:01:26;21.10;99.90
43581;DHT22;29175;51.030;4.606;2023-09-19T13:06:53;21.10;99.90
43581;DHT22;29175;51.030;4.606;2023-09-19T13:09:21;21.20;99.90
43581;DHT22;29175;51.030;4.606;2023-09-19T13:11:48;21.10;99.90
43581;DHT22;29175;51.030;4.606;2023-09-19T13:19:40;21.00;99.90
43581;DHT22;29175;51.030;4.606;2023-09-19T13:25:09;20.80;99.90
43581;DHT22;29175;51.030;4.606;2023-09-19T13:27:44;20.60;99.90
43581;DHT22;29175;51.030;4.606;2023-09-19T13:30:12;20.80;99.90
43581;DHT22;29175;51.030;4.606;2023-09-19T13:32:38;20.70;99.90
43581;DHT22;29175;51.030;4.606;2023-09-19T13:35:07;20.70;99.90
43581;DHT22;29175;51.030;4.606;2023-09-19T13:37:37;20.60;99.90
43581;DHT22;29175;51.030;4.606;2023-09-19T13:40:09;20.50;99.90
43581;DHT22;29175;51.030;4.606;2023-09-19T13:42:35;20.60;99.90
43581;DHT22;29175;51.030;4.606;2023-09-19T13:45:05;20.80;99.90
43581;DHT22;29175;51.030;4.606;2023-09-19T13:47:31;20.80;99.90
43581;DHT22;29175;51.030;4.606;2023-09-19T13:49:58;20.90;99.90
43581;DHT22;29175;51.030;4.606;2023-09-19T13:52:24;21.00;99.90
43581;DHT22;29175;51.030;4.606;2023-09-19T13:54:54;20.90;99.90
43581;DHT22;29175;51.030;4.606;2023-09-19T13:57:22;21.00;99.90
43581;DHT22;29175;51.030;4.606;2023-09-19T13:59:48;21.00;99.90
43581;DHT22;29175;51.030;4.606;2023-09-19T14:02:13;21.20;99.90
43581;DHT22;29175;51.030;4.606;2023-09-19T14:04:40;21.10;99.90
43581;DHT22;29175;51.030;4.606;2023-09-19T14:07:06;21.10;99.90
43581;DHT22;29175;51.030;4.606;2023-09-19T14:09:33;21.10;99.90
43581;DHT22;29175;51.030;4.606;2023-09-19T14:11:59;21.30;99.90
43581;DHT22;29175;51.030;4.606;2023-09-19T14:14:25;21.20;99.90
43581;DHT22;29175;51.030;4.606;2023-09-19T14:16:51;21.30;99.90
43581;DHT22;29175;51.030;4.606;2023-09-19T14:19:18;21.30;99.90
43581;DHT22;29175;51.030;4.606;2023-09-19T14:21:44;21.20;99.90
43581;DHT22;29175;51.030;4.606;2023-09-19T14:24:10;21.10;99.90
43581;DHT22;29175;51.030;4.606;2023-09-19T14:26:37;21.10;99.90
43581;DHT22;29175;51.030;4.606;2023-09-19T14:29:03;21.10;99.90
43581;DHT22;29175;51.030;4.606;2023-09-19T14:31:29;21.20;99.90
43581;DHT22;29175;51.030;4.606;2023-09-19T14:33:55;21.10;99.90
43581;DHT22;29175;51.030;4.606;2023-09-19T14:36:28;21.20;99.90
43581;DHT22;29175;51.030;4.606;2023-09-19T14:38:55;21.30;99.90
43581;DHT22;29175;51.030;4.606;2023-09-19T14:41:22;21.40;99.90
43581;DHT22;29175;51.030;4.606;2023-09-19T14:43:49;21.30;99.90
43581;DHT22;29175;51.030;4.606;2023-09-19T14:46:14;21.40;99.90
43581;DHT22;29175;51.030;4.606;2023-09-19T14:48:41;21.20;99.90
43581;DHT22;29175;51.030;4.606;2023-09-19T14:51:08;21.20;99.90
43581;DHT22;29175;51.030;4.606;2023-09-19T14:53:37;21.10;99.90
43581;DHT22;29175;51.030;4.606;2023-09-19T14:56:05;21.10;99.90
43581;DHT22;29175;51.030;4.606;2023-09-19T14:58:31;21.30;99.90
43581;DHT22;29175;51.030;4.606;2023-09-19T15:01:10;21.10;99.90
43581;DHT22;29175;51.030;4.606;2023-09-19T15:03:38;20.90;99.90
43581;DHT22;29175;51.030;4.606;2023-09-19T15:06:06;20.70;99.90
43581;DHT22;29175;51.030;4.606;2023-09-19T15:08:34;20.60;99.90
43581;DHT22;29175;51.030;4.606;2023-09-19T15:11:09;20.60;99.90
43581;DHT22;29175;51.030;4.606;2023-09-19T15:13:36;20.60;99.90
43581;DHT22;29175;51.030;4.606;2023-09-19T15:16:07;20.50;99.90
43581;DHT22;29175;51.030;4.606;2023-09-19T15:18:41;20.30;99.90
43581;DHT22;29175;51.030;4.606;2023-09-19T15:21:11;20.30;99.90
43581;DHT22;29175;51.030;4.606;2023-09-19T15:23:39;20.30;99.90
43581;DHT22;29175;51.030;4.606;2023-09-19T15:26:06;20.20;99.90
43581;DHT22;29175;51.030;4.606;2023-09-19T15:28:32;20.10;99.90
43581;DHT22;29175;51.030;4.606;2023-09-19T15:31:07;20.10;99.90
43581;DHT22;29175;51.030;4.606;2023-09-19T15:33:35;20.10;99.90
43581;DHT22;29175;51.030;4.606;2023-09-19T15:36:14;20.20;99.90
43581;DHT22;29175;51.030;4.606;2023-09-19T15:39:01;20.10;99.90
43581;DHT22;29175;51.030;4.606;2023-09-19T15:41:32;20.20;99.90
43581;DHT22;29175;51.030;4.606;2023-09-19T15:43:59;20.20;99.90
43581;DHT22;29175;51.030;4.606;2023-09-19T15:46:27;20.10;99.90
43581;DHT22;29175;51.030;4.606;2023-09-19T15:48:55;20.10;99.90
43581;DHT22;29175;51.030;4.606;2023-09-19T15:51:21;20.00;99.90
43581;DHT22;29175;51.030;4.606;2023-09-19T15:53:48;20.00;99.90
43581;DHT22;29175;51.030;4.606;2023-09-19T15:56:15;20.00;99.90
43581;DHT22;29175;51.030;4.606;2023-09-19T15:58:44;19.90;99.90
43581;DHT22;29175;51.030;4.606;2023-09-19T16:01:11;20.00;99.90
43581;DHT22;29175;51.030;4.606;2023-09-19T16:03:38;19.90;99.90
43581;DHT22;29175;51.030;4.606;2023-09-19T16:06:13;19.80;99.90
43581;DHT22;29175;51.030;4.606;2023-09-19T16:08:49;19.80;99.90
43581;DHT22;29175;51.030;4.606;2023-09-19T16:11:16;19.80;99.90
43581;DHT22;29175;51.030;4.606;2023-09-19T16:13:43;19.80;99.90
43581;DHT22;29175;51.030;4.606;2023-09-19T16:16:12;19.80;99.90
43581;DHT22;29175;51.030;4.606;2023-09-19T16:18:52;19.80;99.90
43581;DHT22;29175;51.030;4.606;2023-09-19T16:21:24;19.70;99.90
43581;DHT22;29175;51.030;4.606;2023-09-19T16:23:52;19.70;99.90
43581;DHT22;29175;51.030;4.606;2023-09-19T16:26:20;19.70;99.90
43581;DHT22;29175;51.030;4.606;2023-09-19T16:28:47;19.70;99.90
43581;DHT22;29175;51.030;4.606;2023-09-19T16:31:13;19.70;99.90
43581;DHT22;29175;51.030;4.606;2023-09-19T16:33:40;19.70;99.90
43581;DHT22;29175;51.030;4.606;2023-09-19T16:36:14;19.70;99.90
43581;DHT22;29175;51.030;4.606;2023-09-19T16:38:42;19.70;99.90
43581;DHT22;29175;51.030;4.606;2023-09-19T16:41:09;19.80;99.90
43581;DHT22;29175;51.030;4.606;2023-09-19T16:43:35;19.70;99.90
43581;DHT22;29175;51.030;4.606;2023-09-19T16:46:05;19.60;99.90
43581;DHT22;29175;51.030;4.606;2023-09-19T16:48:33;19.60;99.90
43581;DHT22;29175;51.030;4.606;2023-09-19T16:51:02;19.60;99.90
43581;DHT22;29175;51.030;4.606;2023-09-19T16:53:29;19.60;99.90